sensor_id;sensor_type;location;lat;lon;timestamp;P1;durP1;ratioP1;P2;durP2;ratioP2
55210;SDS011;41082;52.822;6.666;2023-03-25T00:00:38;9.18;;;0.70;;
55210;SDS011;41082;52.822;6.666;2023-03-25T00:03:03;9.93;;;0.70;;
55210;SDS011;41082;52.822;6.666;2023-03-25T00:05:29;11.60;;;1.15;;
55210;SDS011;41082;52.822;6.666;2023-03-25T00:07:55;8.48;;;1.17;;
55210;SDS011;41082;52.822;6.666;2023-03-25T00:10:21;7.75;;;0.68;;
55210;SDS011;41082;52.822;6.666;2023-03-25T00:12:47;7.47;;;1.02;;
55210;SDS011;41082;52.822;6.666;2023-03-25T00:15:12;8.70;;;0.60;;
55210;SDS011;41082;52.822;6.666;2023-03-25T00:17:40;11.05;;;0.82;;
55210;SDS011;41082;52.822;6.666;2023-03-25T00:20:06;8.63;;;0.80;;
55210;SDS011;41082;52.822;6.666;2023-03-25T00:22:34;6.88;;;0.70;;
55210;SDS011;41082;52.822;6.666;2023-03-25T00:25:04;7.93;;;1.23;;
55210;SDS011;41082;52.822;6.666;2023-03-25T00:27:32;11.23;;;1.30;;
55210;SDS011;41082;52.822;6.666;2023-03-25T00:29:57;5.32;;;0.50;;
55210;SDS011;41082;52.822;6.666;2023-03-25T00:32:23;4.45;;;0.63;;
55210;SDS011;41082;52.822;6.666;2023-03-25T00:34:48;5.68;;;0.80;;
55210;SDS011;41082;52.822;6.666;2023-03-25T00:37:15;3.83;;;0.85;;
55210;SDS011;41082;52.822;6.666;2023-03-25T00:39:41;6.45;;;1.00;;
55210;SDS011;41082;52.822;6.666;2023-03-25T00:42:09;6.35;;;0.93;;
55210;SDS011;41082;52.822;6.666;2023-03-25T00:44:35;7.55;;;0.88;;
55210;SDS011;41082;52.822;6.666;2023-03-25T00:47:01;4.35;;;0.95;;
55210;SDS011;41082;52.822;6.666;2023-03-25T00:49:26;8.38;;;1.10;;
55210;SDS011;41082;52.822;6.666;2023-03-25T00:51:53;5.22;;;1.25;;
55210;SDS011;41082;52.822;6.666;2023-03-25T00:54:20;6.50;;;1.45;;
55210;SDS011;41082;52.822;6.666;2023-03-25T00:56:47;7.10;;;1.23;;
55210;SDS011;41082;52.822;6.666;2023-03-25T00:59:13;5.15;;;1.35;;
55210;SDS011;41082;52.822;6.666;2023-03-25T01:01:39;7.35;;;2.13;;
55210;SDS011;41082;52.822;6.666;2023-03-25T01:04:05;9.35;;;1.90;;
55210;SDS011;41082;52.822;6.666;2023-03-25T01:06:36;9.25;;;2.17;;
55210;SDS011;41082;52.822;6.666;2023-03-25T01:09:06;7.75;;;1.95;;
55210;SDS011;41082;52.822;6.666;2023-03-25T01:11:33;7.82;;;2.15;;
55210;SDS011;41082;52.822;6.666;2023-03-25T01:13:59;8.20;;;2.58;;
55210;SDS011;41082;52.822;6.666;2023-03-25T01:16:27;12.13;;;2.40;;
55210;SDS011;41082;52.822;6.666;2023-03-25T01:18:53;4.78;;;2.05;;
55210;SDS011;41082;52.822;6.666;2023-03-25T01:21:20;7.50;;;2.05;;
55210;SDS011;41082;52.822;6.666;2023-03-25T01:23:45;7.22;;;2.28;;
55210;SDS011;41082;52.822;6.666;2023-03-25T01:26:11;9.52;;;2.00;;
55210;SDS011;41082;52.822;6.666;2023-03-25T01:28:38;10.90;;;2.13;;
55210;SDS011;41082;52.822;6.666;2023-03-25T01:31:05;6.95;;;1.85;;
55210;SDS011;41082;52.822;6.666;2023-03-25T01:33:32;8.07;;;1.83;;
55210;SDS011;41082;52.822;6.666;2023-03-25T01:35:58;18.10;;;2.00;;
55210;SDS011;41082;52.822;6.666;2023-03-25T01:38:24;9.77;;;1.85;;
55210;SDS011;41082;52.822;6.666;2023-03-25T01:40:51;10.30;;;2.10;;
55210;SDS011;41082;52.822;6.666;2023-03-25T01:43:17;12.00;;;1.25;;
55210;SDS011;41082;52.822;6.666;2023-03-25T01:45:44;7.45;;;1.83;;
55210;SDS011;41082;52.822;6.666;2023-03-25T01:48:12;12.43;;;1.63;;
55210;SDS011;41082;52.822;6.666;2023-03-25T01:50:42;8.55;;;1.13;;
55210;SDS011;41082;52.822;6.666;2023-03-25T01:53:11;8.73;;;1.50;;
55210;SDS011;41082;52.822;6.666;2023-03-25T01:55:37;13.35;;;1.60;;
55210;SDS011;41082;52.822;6.666;2023-03-25T01:58:06;10.18;;;0.90;;
55210;SDS011;41082;52.822;6.666;2023-03-25T02:00:35;11.45;;;1.23;;
55210;SDS011;41082;52.822;6.666;2023-03-25T02:03:03;8.90;;;1.25;;
55210;SDS011;41082;52.822;6.666;2023-03-25T02:05:33;10.38;;;1.40;;
55210;SDS011;41082;52.822;6.666;2023-03-25T02:08:12;11.48;;;1.20;;
55210;SDS011;41082;52.822;6.666;2023-03-25T02:10:40;9.40;;;0.93;;
55210;SDS011;41082;52.822;6.666;2023-03-25T02:13:08;10.27;;;1.85;;
55210;SDS011;41082;52.822;6.666;2023-03-25T02:15:45;8.90;;;0.98;;
55210;SDS011;41082;52.822;6.666;2023-03-25T02:21:10;13.95;;;1.60;;
55210;SDS011;41082;52.822;6.666;2023-03-25T02:30:03;9.35;;;1.20;;
55210;SDS011;41082;52.822;6.666;2023-03-25T02:38:42;11.95;;;1.40;;
55210;SDS011;41082;52.822;6.666;2023-03-25T02:41:15;12.73;;;1.20;;
55210;SDS011;41082;52.822;6.666;2023-03-25T02:43:47;11.48;;;1.60;;
55210;SDS011;41082;52.822;6.666;2023-03-25T02:46:17;18.55;;;2.28;;
55210;SDS011;41082;52.822;6.666;2023-03-25T02:51:24;13.80;;;2.00;;
55210;SDS011;41082;52.822;6.666;2023-03-25T02:53:55;14.48;;;1.95;;
55210;SDS011;41082;52.822;6.666;2023-03-25T02:56:25;21.52;;;1.90;;
55210;SDS011;41082;52.822;6.666;2023-03-25T02:58:53;12.52;;;2.08;;
55210;SDS011;41082;52.822;6.666;2023-03-25T03:01:21;13.45;;;1.73;;
55210;SDS011;41082;52.822;6.666;2023-03-25T03:03:50;13.45;;;1.52;;
55210;SDS011;41082;52.822;6.666;2023-03-25T03:06:17;15.13;;;1.80;;
55210;SDS011;41082;52.822;6.666;2023-03-25T03:28:09;18.65;;;2.13;;
55210;SDS011;41082;52.822;6.666;2023-03-25T03:30:59;15.50;;;2.45;;
55210;SDS011;41082;52.822;6.666;2023-03-25T03:33:46;16.13;;;1.17;;
55210;SDS011;41082;52.822;6.666;2023-03-25T03:36:21;13.38;;;1.52;;
55210;SDS011;41082;52.822;6.666;2023-03-25T03:38:54;9.35;;;1.05;;
55210;SDS011;41082;52.822;6.666;2023-03-25T03:41:26;14.55;;;1.95;;
55210;SDS011;41082;52.822;6.666;2023-03-25T03:43:58;17.15;;;1.63;;
55210;SDS011;41082;52.822;6.666;2023-03-25T03:46:29;11.80;;;1.05;;
55210;SDS011;41082;52.822;6.666;2023-03-25T03:48:57;16.38;;;2.72;;
55210;SDS011;41082;52.822;6.666;2023-03-25T03:51:26;14.75;;;1.88;;
55210;SDS011;41082;52.822;6.666;2023-03-25T03:56:46;11.98;;;1.13;;
55210;SDS011;41082;52.822;6.666;2023-03-25T03:59:26;12.18;;;1.85;;
55210;SDS011;41082;52.822;6.666;2023-03-25T04:02:27;11.88;;;1.55;;
55210;SDS011;41082;52.822;6.666;2023-03-25T04:05:09;13.27;;;1.88;;
55210;SDS011;41082;52.822;6.666;2023-03-25T04:07:42;9.82;;;1.85;;
55210;SDS011;41082;52.822;6.666;2023-03-25T04:10:13;14.35;;;1.52;;
55210;SDS011;41082;52.822;6.666;2023-03-25T04:12:46;14.65;;;1.90;;
55210;SDS011;41082;52.822;6.666;2023-03-25T04:15:15;10.05;;;2.10;;
55210;SDS011;41082;52.822;6.666;2023-03-25T04:17:42;14.05;;;1.92;;
55210;SDS011;41082;52.822;6.666;2023-03-25T04:20:09;11.50;;;1.35;;
55210;SDS011;41082;52.822;6.666;2023-03-25T04:22:39;12.20;;;2.20;;
55210;SDS011;41082;52.822;6.666;2023-03-25T04:25:09;12.95;;;1.40;;
55210;SDS011;41082;52.822;6.666;2023-03-25T04:27:36;13.10;;;1.70;;
55210;SDS011;41082;52.822;6.666;2023-03-25T04:30:05;12.60;;;1.92;;
55210;SDS011;41082;52.822;6.666;2023-03-25T04:32:32;17.83;;;2.38;;
55210;SDS011;41082;52.822;6.666;2023-03-25T04:34:58;13.13;;;1.70;;
55210;SDS011;41082;52.822;6.666;2023-03-25T04:37:25;12.07;;;1.90;;
55210;SDS011;41082;52.822;6.666;2023-03-25T04:39:52;12.45;;;2.13;;
55210;SDS011;41082;52.822;6.666;2023-03-25T04:42:20;9.48;;;1.35;;
55210;SDS011;41082;52.822;6.666;2023-03-25T04:44:50;12.50;;;2.13;;
55210;SDS011;41082;52.822;6.666;2023-03-25T04:47:16;9.70;;;1.98;;
55210;SDS011;41082;52.822;6.666;2023-03-25T04:49:47;11.57;;;2.15;;
55210;SDS011;41082;52.822;6.666;2023-03-25T04:52:12;12.95;;;2.30;;
55210;SDS011;41082;52.822;6.666;2023-03-25T04:54:38;12.32;;;2.08;;
55210;SDS011;41082;52.822;6.666;2023-03-25T04:57:04;9.07;;;1.40;;
55210;SDS011;41082;52.822;6.666;2023-03-25T04:59:32;11.40;;;2.40;;
55210;SDS011;41082;52.822;6.666;2023-03-25T05:01:58;15.50;;;2.35;;
55210;SDS011;41082;52.822;6.666;2023-03-25T05:04:26;12.82;;;2.80;;
55210;SDS011;41082;52.822;6.666;2023-03-25T05:06:52;16.35;;;2.22;;
55210;SDS011;41082;52.822;6.666;2023-03-25T05:09:18;12.80;;;2.47;;
55210;SDS011;41082;52.822;6.666;2023-03-25T05:11:48;10.65;;;2.25;;
55210;SDS011;41082;52.822;6.666;2023-03-25T05:14:17;15.15;;;2.38;;
55210;SDS011;41082;52.822;6.666;2023-03-25T05:16:44;14.82;;;3.00;;
55210;SDS011;41082;52.822;6.666;2023-03-25T05:19:10;15.18;;;2.40;;
55210;SDS011;41082;52.822;6.666;2023-03-25T05:21:36;12.15;;;2.50;;
55210;SDS011;41082;52.822;6.666;2023-03-25T05:24:03;13.43;;;2.80;;
55210;SDS011;41082;52.822;6.666;2023-03-25T05:26:32;15.70;;;2.90;;
55210;SDS011;41082;52.822;6.666;2023-03-25T05:29:05;16.40;;;3.42;;
55210;SDS011;41082;52.822;6.666;2023-03-25T05:31:32;11.60;;;2.42;;
55210;SDS011;41082;52.822;6.666;2023-03-25T05:33:59;15.57;;;2.83;;
55210;SDS011;41082;52.822;6.666;2023-03-25T05:36:25;10.30;;;2.22;;
55210;SDS011;41082;52.822;6.666;2023-03-25T05:38:51;9.50;;;2.78;;
55210;SDS011;41082;52.822;6.666;2023-03-25T05:41:21;11.65;;;2.15;;
55210;SDS011;41082;52.822;6.666;2023-03-25T05:43:56;15.93;;;2.10;;
55210;SDS011;41082;52.822;6.666;2023-03-25T05:46:24;7.63;;;1.88;;
55210;SDS011;41082;52.822;6.666;2023-03-25T05:48:50;7.72;;;1.73;;
55210;SDS011;41082;52.822;6.666;2023-03-25T05:51:17;12.93;;;2.33;;
55210;SDS011;41082;52.822;6.666;2023-03-25T05:53:46;10.43;;;2.05;;
55210;SDS011;41082;52.822;6.666;2023-03-25T05:56:16;13.43;;;2.42;;
55210;SDS011;41082;52.822;6.666;2023-03-25T05:58:46;12.55;;;1.83;;
55210;SDS011;41082;52.822;6.666;2023-03-25T06:01:13;9.88;;;1.60;;
55210;SDS011;41082;52.822;6.666;2023-03-25T06:03:41;9.15;;;1.52;;
55210;SDS011;41082;52.822;6.666;2023-03-25T06:06:07;6.07;;;1.40;;
55210;SDS011;41082;52.822;6.666;2023-03-25T06:08:38;8.50;;;1.58;;
55210;SDS011;41082;52.822;6.666;2023-03-25T06:11:09;10.10;;;1.30;;
55210;SDS011;41082;52.822;6.666;2023-03-25T06:13:38;11.68;;;1.55;;
55210;SDS011;41082;52.822;6.666;2023-03-25T06:16:05;9.40;;;1.67;;
55210;SDS011;41082;52.822;6.666;2023-03-25T06:18:37;10.98;;;1.60;;
55210;SDS011;41082;52.822;6.666;2023-03-25T06:21:02;12.65;;;2.10;;
55210;SDS011;41082;52.822;6.666;2023-03-25T06:23:30;12.35;;;1.90;;
55210;SDS011;41082;52.822;6.666;2023-03-25T06:25:59;13.25;;;2.08;;
55210;SDS011;41082;52.822;6.666;2023-03-25T06:28:25;13.52;;;1.73;;
55210;SDS011;41082;52.822;6.666;2023-03-25T06:30:50;12.20;;;1.85;;
55210;SDS011;41082;52.822;6.666;2023-03-25T06:33:16;11.80;;;1.65;;
55210;SDS011;41082;52.822;6.666;2023-03-25T06:35:44;12.68;;;2.10;;
55210;SDS011;41082;52.822;6.666;2023-03-25T06:38:13;10.05;;;1.35;;
55210;SDS011;41082;52.822;6.666;2023-03-25T06:40:39;8.63;;;1.33;;
55210;SDS011;41082;52.822;6.666;2023-03-25T06:43:04;12.63;;;1.48;;
55210;SDS011;41082;52.822;6.666;2023-03-25T06:45:34;14.55;;;1.85;;
55210;SDS011;41082;52.822;6.666;2023-03-25T06:47:59;11.57;;;1.17;;
55210;SDS011;41082;52.822;6.666;2023-03-25T06:50:25;10.80;;;2.58;;
55210;SDS011;41082;52.822;6.666;2023-03-25T06:52:51;11.23;;;1.30;;
55210;SDS011;41082;52.822;6.666;2023-03-25T06:55:17;13.80;;;1.90;;
55210;SDS011;41082;52.822;6.666;2023-03-25T06:57:42;8.88;;;1.23;;
55210;SDS011;41082;52.822;6.666;2023-03-25T07:00:09;13.68;;;1.10;;
55210;SDS011;41082;52.822;6.666;2023-03-25T07:02:36;11.63;;;1.40;;
55210;SDS011;41082;52.822;6.666;2023-03-25T07:05:02;12.30;;;1.52;;
55210;SDS011;41082;52.822;6.666;2023-03-25T07:07:28;14.55;;;1.90;;
55210;SDS011;41082;52.822;6.666;2023-03-25T07:09:54;12.20;;;1.42;;
55210;SDS011;41082;52.822;6.666;2023-03-25T07:12:20;12.50;;;1.92;;
55210;SDS011;41082;52.822;6.666;2023-03-25T07:14:50;8.80;;;2.40;;
55210;SDS011;41082;52.822;6.666;2023-03-25T07:17:21;17.25;;;1.73;;
55210;SDS011;41082;52.822;6.666;2023-03-25T07:19:47;14.68;;;2.33;;
55210;SDS011;41082;52.822;6.666;2023-03-25T07:22:13;15.05;;;1.60;;
55210;SDS011;41082;52.822;6.666;2023-03-25T07:24:38;16.42;;;1.98;;
55210;SDS011;41082;52.822;6.666;2023-03-25T07:27:04;16.98;;;2.25;;
55210;SDS011;41082;52.822;6.666;2023-03-25T07:29:30;17.42;;;1.98;;
55210;SDS011;41082;52.822;6.666;2023-03-25T07:31:55;19.42;;;2.72;;
55210;SDS011;41082;52.822;6.666;2023-03-25T07:34:21;16.27;;;1.50;;
55210;SDS011;41082;52.822;6.666;2023-03-25T07:36:47;20.38;;;2.10;;
55210;SDS011;41082;52.822;6.666;2023-03-25T07:39:12;12.63;;;1.98;;
55210;SDS011;41082;52.822;6.666;2023-03-25T07:41:38;16.67;;;2.50;;
55210;SDS011;41082;52.822;6.666;2023-03-25T07:44:03;17.50;;;1.63;;
55210;SDS011;41082;52.822;6.666;2023-03-25T07:46:29;15.02;;;1.70;;
55210;SDS011;41082;52.822;6.666;2023-03-25T07:48:55;11.32;;;1.30;;
55210;SDS011;41082;52.822;6.666;2023-03-25T07:51:21;20.00;;;2.08;;
55210;SDS011;41082;52.822;6.666;2023-03-25T07:53:46;15.95;;;3.08;;
55210;SDS011;41082;52.822;6.666;2023-03-25T07:56:12;17.27;;;1.95;;
55210;SDS011;41082;52.822;6.666;2023-03-25T07:58:38;18.83;;;1.58;;
55210;SDS011;41082;52.822;6.666;2023-03-25T08:01:04;17.42;;;1.55;;
55210;SDS011;41082;52.822;6.666;2023-03-25T08:03:30;21.38;;;1.77;;
55210;SDS011;41082;52.822;6.666;2023-03-25T08:05:58;15.73;;;2.00;;
55210;SDS011;41082;52.822;6.666;2023-03-25T08:08:25;17.55;;;1.75;;
55210;SDS011;41082;52.822;6.666;2023-03-25T08:10:54;20.85;;;2.15;;
55210;SDS011;41082;52.822;6.666;2023-03-25T08:13:20;18.45;;;2.25;;
55210;SDS011;41082;52.822;6.666;2023-03-25T08:15:46;18.50;;;2.08;;
55210;SDS011;41082;52.822;6.666;2023-03-25T08:18:11;18.65;;;2.55;;
55210;SDS011;41082;52.822;6.666;2023-03-25T08:20:37;16.67;;;1.33;;
55210;SDS011;41082;52.822;6.666;2023-03-25T08:23:03;20.02;;;2.05;;
55210;SDS011;41082;52.822;6.666;2023-03-25T08:25:34;20.33;;;2.50;;
55210;SDS011;41082;52.822;6.666;2023-03-25T08:28:04;21.73;;;2.43;;
55210;SDS011;41082;52.822;6.666;2023-03-25T08:30:31;18.13;;;1.35;;
55210;SDS011;41082;52.822;6.666;2023-03-25T08:33:03;19.17;;;2.30;;
55210;SDS011;41082;52.822;6.666;2023-03-25T08:35:31;17.05;;;1.75;;
55210;SDS011;41082;52.822;6.666;2023-03-25T08:37:58;13.98;;;1.45;;
55210;SDS011;41082;52.822;6.666;2023-03-25T08:40:25;17.88;;;2.10;;
55210;SDS011;41082;52.822;6.666;2023-03-25T08:42:51;20.42;;;2.08;;
55210;SDS011;41082;52.822;6.666;2023-03-25T08:45:17;18.70;;;1.90;;
55210;SDS011;41082;52.822;6.666;2023-03-25T08:47:43;19.40;;;1.48;;
55210;SDS011;41082;52.822;6.666;2023-03-25T08:50:09;17.90;;;1.70;;
55210;SDS011;41082;52.822;6.666;2023-03-25T08:52:36;20.63;;;2.42;;
55210;SDS011;41082;52.822;6.666;2023-03-25T08:55:02;13.93;;;1.90;;
55210;SDS011;41082;52.822;6.666;2023-03-25T08:57:29;20.25;;;2.15;;
55210;SDS011;41082;52.822;6.666;2023-03-25T08:59:54;17.25;;;2.38;;
55210;SDS011;41082;52.822;6.666;2023-03-25T09:02:20;15.60;;;2.58;;
55210;SDS011;41082;52.822;6.666;2023-03-25T09:04:48;16.83;;;2.17;;
55210;SDS011;41082;52.822;6.666;2023-03-25T09:07:14;14.43;;;1.20;;
55210;SDS011;41082;52.822;6.666;2023-03-25T09:09:39;12.25;;;1.15;;
55210;SDS011;41082;52.822;6.666;2023-03-25T09:12:05;13.60;;;2.10;;
55210;SDS011;41082;52.822;6.666;2023-03-25T09:14:32;18.50;;;2.08;;
55210;SDS011;41082;52.822;6.666;2023-03-25T09:16:57;17.92;;;2.25;;
55210;SDS011;41082;52.822;6.666;2023-03-25T09:19:23;23.55;;;2.35;;
55210;SDS011;41082;52.822;6.666;2023-03-25T09:21:50;14.15;;;1.35;;
55210;SDS011;41082;52.822;6.666;2023-03-25T09:24:15;15.57;;;1.88;;
55210;SDS011;41082;52.822;6.666;2023-03-25T09:26:41;11.93;;;1.80;;
55210;SDS011;41082;52.822;6.666;2023-03-25T09:29:07;19.90;;;2.17;;
55210;SDS011;41082;52.822;6.666;2023-03-25T09:31:32;19.23;;;2.38;;
55210;SDS011;41082;52.822;6.666;2023-03-25T09:33:58;12.23;;;1.52;;
55210;SDS011;41082;52.822;6.666;2023-03-25T09:36:23;15.30;;;1.50;;
55210;SDS011;41082;52.822;6.666;2023-03-25T09:38:49;16.10;;;2.08;;
55210;SDS011;41082;52.822;6.666;2023-03-25T09:44:19;13.55;;;1.40;;
55210;SDS011;41082;52.822;6.666;2023-03-25T09:46:50;16.70;;;2.28;;
55210;SDS011;41082;52.822;6.666;2023-03-25T09:49:20;16.10;;;1.55;;
55210;SDS011;41082;52.822;6.666;2023-03-25T09:51:48;16.10;;;1.73;;
55210;SDS011;41082;52.822;6.666;2023-03-25T09:54:18;13.73;;;1.83;;
55210;SDS011;41082;52.822;6.666;2023-03-25T09:56:57;13.93;;;1.45;;
55210;SDS011;41082;52.822;6.666;2023-03-25T09:59:41;13.82;;;1.42;;
55210;SDS011;41082;52.822;6.666;2023-03-25T10:10:51;14.85;;;1.42;;
55210;SDS011;41082;52.822;6.666;2023-03-25T10:19:16;16.60;;;1.83;;
55210;SDS011;41082;52.822;6.666;2023-03-25T10:22:03;13.50;;;1.38;;
55210;SDS011;41082;52.822;6.666;2023-03-25T10:24:38;14.15;;;1.35;;
55210;SDS011;41082;52.822;6.666;2023-03-25T10:27:38;12.55;;;1.40;;
55210;SDS011;41082;52.822;6.666;2023-03-25T10:32:36;8.52;;;0.98;;
55210;SDS011;41082;52.822;6.666;2023-03-25T10:35:04;10.48;;;1.00;;
55210;SDS011;41082;52.822;6.666;2023-03-25T10:37:36;11.80;;;1.23;;
55210;SDS011;41082;52.822;6.666;2023-03-25T10:45:31;17.80;;;2.40;;
55210;SDS011;41082;52.822;6.666;2023-03-25T10:48:06;17.42;;;2.08;;
55210;SDS011;41082;52.822;6.666;2023-03-25T10:50:40;18.88;;;2.08;;
55210;SDS011;41082;52.822;6.666;2023-03-25T10:53:11;11.85;;;1.17;;
55210;SDS011;41082;52.822;6.666;2023-03-25T10:55:53;25.05;;;2.25;;
55210;SDS011;41082;52.822;6.666;2023-03-25T10:58:23;10.20;;;1.27;;
55210;SDS011;41082;52.822;6.666;2023-03-25T11:00:50;18.05;;;1.90;;
55210;SDS011;41082;52.822;6.666;2023-03-25T11:03:19;14.88;;;1.40;;
55210;SDS011;41082;52.822;6.666;2023-03-25T11:05:50;12.68;;;1.13;;
55210;SDS011;41082;52.822;6.666;2023-03-25T11:08:18;12.00;;;1.42;;
55210;SDS011;41082;52.822;6.666;2023-03-25T11:10:48;16.00;;;1.73;;
55210;SDS011;41082;52.822;6.666;2023-03-25T11:13:29;10.75;;;1.25;;
55210;SDS011;41082;52.822;6.666;2023-03-25T11:16:00;12.68;;;1.50;;
55210;SDS011;41082;52.822;6.666;2023-03-25T11:18:28;17.10;;;2.17;;
55210;SDS011;41082;52.822;6.666;2023-03-25T11:21:13;12.70;;;1.50;;
55210;SDS011;41082;52.822;6.666;2023-03-25T11:26:12;15.63;;;1.98;;
55210;SDS011;41082;52.822;6.666;2023-03-25T11:28:54;13.88;;;0.95;;
55210;SDS011;41082;52.822;6.666;2023-03-25T11:31:25;14.07;;;1.52;;
55210;SDS011;41082;52.822;6.666;2023-03-25T11:36:38;12.32;;;1.45;;
55210;SDS011;41082;52.822;6.666;2023-03-25T11:41:47;13.20;;;1.52;;
55210;SDS011;41082;52.822;6.666;2023-03-25T11:44:31;9.60;;;0.77;;
55210;SDS011;41082;52.822;6.666;2023-03-25T11:46:59;12.02;;;1.30;;
55210;SDS011;41082;52.822;6.666;2023-03-25T11:49:28;11.70;;;0.98;;
55210;SDS011;41082;52.822;6.666;2023-03-25T11:51:59;10.50;;;0.75;;
55210;SDS011;41082;52.822;6.666;2023-03-25T11:54:29;12.68;;;1.23;;
55210;SDS011;41082;52.822;6.666;2023-03-25T11:56:56;11.45;;;1.35;;
55210;SDS011;41082;52.822;6.666;2023-03-25T11:59:26;12.30;;;1.27;;
55210;SDS011;41082;52.822;6.666;2023-03-25T12:02:15;12.90;;;0.82;;
55210;SDS011;41082;52.822;6.666;2023-03-25T12:05:31;13.88;;;2.00;;
55210;SDS011;41082;52.822;6.666;2023-03-25T12:10:20;8.48;;;1.20;;
55210;SDS011;41082;52.822;6.666;2023-03-25T12:13:05;8.75;;;0.65;;
55210;SDS011;41082;52.822;6.666;2023-03-25T12:15:46;9.00;;;0.98;;
55210;SDS011;41082;52.822;6.666;2023-03-25T12:24:06;9.98;;;1.88;;
55210;SDS011;41082;52.822;6.666;2023-03-25T12:27:18;10.18;;;0.95;;
55210;SDS011;41082;52.822;6.666;2023-03-25T12:32:37;9.18;;;1.30;;
55210;SDS011;41082;52.822;6.666;2023-03-25T12:35:29;11.00;;;1.23;;
55210;SDS011;41082;52.822;6.666;2023-03-25T12:43:04;15.73;;;2.08;;
55210;SDS011;41082;52.822;6.666;2023-03-25T12:51:36;9.38;;;0.88;;
55210;SDS011;41082;52.822;6.666;2023-03-25T12:54:10;10.73;;;0.73;;
55210;SDS011;41082;52.822;6.666;2023-03-25T12:56:43;9.95;;;1.35;;
55210;SDS011;41082;52.822;6.666;2023-03-25T12:59:30;8.50;;;0.85;;
55210;SDS011;41082;52.822;6.666;2023-03-25T13:02:58;10.07;;;1.38;;
55210;SDS011;41082;52.822;6.666;2023-03-25T13:05:21;8.85;;;1.58;;
55210;SDS011;41082;52.822;6.666;2023-03-25T13:07:58;10.93;;;1.17;;
55210;SDS011;41082;52.822;6.666;2023-03-25T13:10:32;11.45;;;1.58;;
55210;SDS011;41082;52.822;6.666;2023-03-25T13:13:00;8.48;;;1.15;;
55210;SDS011;41082;52.822;6.666;2023-03-25T13:15:31;7.63;;;0.60;;
55210;SDS011;41082;52.822;6.666;2023-03-25T13:18:08;6.72;;;0.65;;
55210;SDS011;41082;52.822;6.666;2023-03-25T13:21:14;11.38;;;1.30;;
55210;SDS011;41082;52.822;6.666;2023-03-25T13:23:47;9.68;;;0.75;;
55210;SDS011;41082;52.822;6.666;2023-03-25T13:26:24;9.07;;;1.13;;
55210;SDS011;41082;52.822;6.666;2023-03-25T13:29:04;10.77;;;1.38;;
55210;SDS011;41082;52.822;6.666;2023-03-25T13:31:37;7.80;;;0.68;;
55210;SDS011;41082;52.822;6.666;2023-03-25T13:42:57;7.68;;;1.02;;
55210;SDS011;41082;52.822;6.666;2023-03-25T13:45:38;9.82;;;0.88;;
55210;SDS011;41082;52.822;6.666;2023-03-25T13:48:33;17.63;;;2.03;;
55210;SDS011;41082;52.822;6.666;2023-03-25T13:51:05;13.63;;;0.95;;
55210;SDS011;41082;52.822;6.666;2023-03-25T13:53:36;14.07;;;1.13;;
55210;SDS011;41082;52.822;6.666;2023-03-25T13:56:29;9.90;;;1.20;;
55210;SDS011;41082;52.822;6.666;2023-03-25T14:12:51;7.70;;;0.85;;
55210;SDS011;41082;52.822;6.666;2023-03-25T14:15:21;11.05;;;0.95;;
55210;SDS011;41082;52.822;6.666;2023-03-25T14:17:51;11.15;;;1.02;;
55210;SDS011;41082;52.822;6.666;2023-03-25T14:20:25;13.95;;;1.33;;
55210;SDS011;41082;52.822;6.666;2023-03-25T14:22:56;10.23;;;0.98;;
55210;SDS011;41082;52.822;6.666;2023-03-25T14:28:18;9.38;;;0.98;;
55210;SDS011;41082;52.822;6.666;2023-03-25T14:39:10;6.22;;;0.40;;
55210;SDS011;41082;52.822;6.666;2023-03-25T14:44:28;6.68;;;0.52;;
55210;SDS011;41082;52.822;6.666;2023-03-25T14:55:18;3.40;;;0.20;;
55210;SDS011;41082;52.822;6.666;2023-03-25T14:57:46;2.80;;;0.17;;
55210;SDS011;41082;52.822;6.666;2023-03-25T15:00:33;2.25;;;0.20;;
55210;SDS011;41082;52.822;6.666;2023-03-25T15:03:08;7.43;;;0.60;;
55210;SDS011;41082;52.822;6.666;2023-03-25T15:05:37;7.63;;;0.30;;
55210;SDS011;41082;52.822;6.666;2023-03-25T15:10:48;4.90;;;0.30;;
55210;SDS011;41082;52.822;6.666;2023-03-25T15:13:27;7.80;;;0.50;;
55210;SDS011;41082;52.822;6.666;2023-03-25T15:16:17;4.68;;;0.30;;
55210;SDS011;41082;52.822;6.666;2023-03-25T15:18:59;5.03;;;0.20;;
55210;SDS011;41082;52.822;6.666;2023-03-25T15:22:23;5.28;;;0.43;;
55210;SDS011;41082;52.822;6.666;2023-03-25T15:24:58;2.75;;;0.15;;
55210;SDS011;41082;52.822;6.666;2023-03-25T15:27:28;4.82;;;0.50;;
55210;SDS011;41082;52.822;6.666;2023-03-25T15:35:48;1.92;;;0.20;;
55210;SDS011;41082;52.822;6.666;2023-03-25T15:38:29;3.90;;;0.30;;
55210;SDS011;41082;52.822;6.666;2023-03-25T15:44:02;3.13;;;0.40;;
55210;SDS011;41082;52.822;6.666;2023-03-25T15:47:07;4.82;;;0.40;;
55210;SDS011;41082;52.822;6.666;2023-03-25T15:49:51;3.80;;;0.40;;
55210;SDS011;41082;52.822;6.666;2023-03-25T15:55:12;3.63;;;0.22;;
55210;SDS011;41082;52.822;6.666;2023-03-25T15:57:44;3.80;;;0.45;;
55210;SDS011;41082;52.822;6.666;2023-03-25T16:00:19;4.43;;;0.50;;
55210;SDS011;41082;52.822;6.666;2023-03-25T16:05:49;5.18;;;0.22;;
55210;SDS011;41082;52.822;6.666;2023-03-25T16:08:26;4.47;;;0.22;;
55210;SDS011;41082;52.822;6.666;2023-03-25T16:10:55;5.00;;;0.60;;
55210;SDS011;41082;52.822;6.666;2023-03-25T16:13:22;6.95;;;0.50;;
55210;SDS011;41082;52.822;6.666;2023-03-25T16:15:56;4.13;;;0.40;;
55210;SDS011;41082;52.822;6.666;2023-03-25T16:18:22;2.72;;;0.20;;
55210;SDS011;41082;52.822;6.666;2023-03-25T16:20:53;3.60;;;0.50;;
55210;SDS011;41082;52.822;6.666;2023-03-25T16:23:21;4.43;;;1.02;;
55210;SDS011;41082;52.822;6.666;2023-03-25T16:25:49;3.38;;;0.20;;
55210;SDS011;41082;52.822;6.666;2023-03-25T16:28:16;5.60;;;0.47;;
55210;SDS011;41082;52.822;6.666;2023-03-25T16:33:15;4.90;;;0.45;;
55210;SDS011;41082;52.822;6.666;2023-03-25T16:35:46;6.70;;;0.65;;
55210;SDS011;41082;52.822;6.666;2023-03-25T16:38:18;3.65;;;0.30;;
55210;SDS011;41082;52.822;6.666;2023-03-25T16:40:45;4.32;;;0.73;;
55210;SDS011;41082;52.822;6.666;2023-03-25T16:45:46;4.57;;;0.50;;
55210;SDS011;41082;52.822;6.666;2023-03-25T16:48:23;4.90;;;0.63;;
55210;SDS011;41082;52.822;6.666;2023-03-25T16:50:52;5.15;;;1.25;;
55210;SDS011;41082;52.822;6.666;2023-03-25T16:53:19;4.68;;;0.45;;
55210;SDS011;41082;52.822;6.666;2023-03-25T16:55:55;4.70;;;0.40;;
55210;SDS011;41082;52.822;6.666;2023-03-25T16:58:23;4.93;;;0.43;;
55210;SDS011;41082;52.822;6.666;2023-03-25T17:00:52;7.47;;;0.38;;
55210;SDS011;41082;52.822;6.666;2023-03-25T17:08:43;7.78;;;0.65;;
55210;SDS011;41082;52.822;6.666;2023-03-25T17:11:13;11.07;;;0.70;;
55210;SDS011;41082;52.822;6.666;2023-03-25T17:13:50;6.03;;;0.60;;
55210;SDS011;41082;52.822;6.666;2023-03-25T17:16:18;6.03;;;0.70;;
55210;SDS011;41082;52.822;6.666;2023-03-25T17:18:46;6.63;;;0.88;;
55210;SDS011;41082;52.822;6.666;2023-03-25T17:21:19;7.28;;;0.73;;
55210;SDS011;41082;52.822;6.666;2023-03-25T17:23:50;6.30;;;0.70;;
55210;SDS011;41082;52.822;6.666;2023-03-25T17:26:18;14.00;;;1.08;;
55210;SDS011;41082;52.822;6.666;2023-03-25T17:31:38;8.40;;;0.40;;
55210;SDS011;41082;52.822;6.666;2023-03-25T17:36:44;9.02;;;0.60;;
55210;SDS011;41082;52.822;6.666;2023-03-25T17:39:15;11.38;;;0.80;;
55210;SDS011;41082;52.822;6.666;2023-03-25T17:41:46;11.27;;;0.80;;
55210;SDS011;41082;52.822;6.666;2023-03-25T17:44:16;10.27;;;0.80;;
55210;SDS011;41082;52.822;6.666;2023-03-25T17:46:42;10.82;;;0.75;;
55210;SDS011;41082;52.822;6.666;2023-03-25T17:49:15;10.13;;;0.98;;
55210;SDS011;41082;52.822;6.666;2023-03-25T17:51:42;9.60;;;0.90;;